Time;durP1;ratioP1;P1;durP2;ratioP2;P2;SDS_P1;SDS_P2;PMS_P1;PMS_P2;Temp;Humidity;BMP_temperature;BMP_pressure;BME280_temperature;BME280_humidity;BME280_pressure;Samples;Min_cycle;Max_cycle;Signal;HPM_P1;HPM_P2
2020/12/29 00:00:13;;;;;;;2.97;1.52;;;2.00;94.00;;;;;;4845572;29;20274;-81
2020/12/29 00:02:40;;;;;;;2.78;1.63;;;2.00;94.30;;;;;;4837791;29;20251;-82
2020/12/29 00:05:07;;;;;;;5.10;1.88;;;2.00;94.10;;;;;;4857146;29;20249;-81
2020/12/29 00:07:34;;;;;;;4.43;2.17;;;2.00;93.90;;;;;;4845467;29;20218;-80
2020/12/29 00:10:02;;;;;;;4.50;1.35;;;2.00;94.20;;;;;;4859534;29;20060;-81
2020/12/29 00:12:30;;;;;;;6.60;3.05;;;1.90;94.20;;;;;;4857066;29;20065;-81
2020/12/29 00:14:57;;;;;;;4.70;1.70;;;1.80;94.40;;;;;;4855094;29;20060;-82
2020/12/29 00:17:24;;;;;;;2.08;1.15;;;1.80;94.70;;;;;;4858738;29;20065;-80
2020/12/29 00:19:51;;;;;;;7.38;2.63;;;2.00;94.30;;;;;;4860878;29;20045;-79
2020/12/29 00:22:17;;;;;;;3.10;1.65;;;2.00;94.00;;;;;;4839599;29;20053;-82
2020/12/29 00:24:44;;;;;;;3.75;1.55;;;2.10;93.60;;;;;;4852931;29;20121;-80
2020/12/29 00:27:12;;;;;;;3.53;1.45;;;2.20;93.40;;;;;;4859853;29;20057;-80
2020/12/29 00:29:40;;;;;;;4.03;1.52;;;2.20;93.50;;;;;;4841860;29;20057;-80
2020/12/29 00:32:06;;;;;;;2.53;1.63;;;2.30;93.30;;;;;;4857247;29;20053;-82
2020/12/29 00:34:33;;;;;;;2.28;1.15;;;2.40;93.10;;;;;;4862668;29;20045;-79
2020/12/29 00:37:00;;;;;;;2.55;1.20;;;2.40;92.80;;;;;;4854221;29;20061;-82
2020/12/29 00:39:31;;;;;;;5.38;1.58;;;2.40;93.00;;;;;;4873309;29;20429;-81
2020/12/29 00:41:58;;;;;;;2.75;1.23;;;2.50;93.10;;;;;;4841613;29;20348;-81
2020/12/29 00:44:27;;;;;;;4.28;1.42;;;2.50;92.80;;;;;;4873011;29;20077;-82
2020/12/29 00:46:54;;;;;;;5.75;2.05;;;2.60;92.80;;;;;;4825808;29;20084;-80
2020/12/29 00:49:23;;;;;;;4.15;1.42;;;2.70;92.50;;;;;;4856146;29;20080;-80
2020/12/29 00:51:51;;;;;;;3.92;1.33;;;2.70;92.20;;;;;;4840773;29;20240;-83
2020/12/29 00:54:20;;;;;;;3.10;1.33;;;2.70;92.10;;;;;;4856362;29;20061;-82
2020/12/29 00:56:50;;;;;;;3.90;1.45;;;2.70;92.50;;;;;;4854114;29;20052;-83
2020/12/29 00:59:18;;;;;;;3.45;1.30;;;2.80;92.70;;;;;;4847980;29;20060;-82
2020/12/29 01:01:53;;;;;;;2.97;1.40;;;2.90;92.20;;;;;;4856243;29;20087;-80
2020/12/29 01:04:38;;;;;;;4.07;1.50;;;2.80;92.30;;;;;;4856148;29;20098;-84
2020/12/29 01:07:07;;;;;;;3.42;1.23;;;2.90;92.50;;;;;;4873735;29;20093;-84
2020/12/29 01:09:36;;;;;;;2.75;1.10;;;2.90;92.30;;;;;;4855789;29;20065;-80
2020/12/29 01:12:04;;;;;;;7.63;1.13;;;2.90;92.20;;;;;;4858500;29;20352;-82
2020/12/29 01:14:33;;;;;;;2.17;0.70;;;2.90;92.30;;;;;;4851909;29;20240;-82
2020/12/29 01:17:10;;;;;;;5.55;1.63;;;2.80;92.30;;;;;;4871109;29;20272;-81
2020/12/29 01:19:37;;;;;;;3.03;1.52;;;2.80;92.70;;;;;;4860706;29;20068;-82
2020/12/29 01:22:06;;;;;;;3.60;1.25;;;3.00;92.70;;;;;;4865843;29;20065;-82
2020/12/29 01:24:33;;;;;;;2.08;0.98;;;3.10;92.40;;;;;;4868943;29;20037;-81
2020/12/29 01:27:01;;;;;;;2.70;1.20;;;3.00;92.30;;;;;;4853985;29;20073;-82
2020/12/29 01:29:28;;;;;;;2.35;1.20;;;3.00;91.60;;;;;;4839729;29;20056;-81
2020/12/29 01:31:55;;;;;;;8.27;1.60;;;3.00;92.30;;;;;;4863839;29;20071;-81
2020/12/29 01:34:22;;;;;;;3.20;1.40;;;3.00;92.70;;;;;;4857483;29;20049;-81
2020/12/29 01:36:49;;;;;;;3.03;1.63;;;3.20;91.90;;;;;;4865067;29;20089;-81
2020/12/29 01:39:16;;;;;;;3.47;1.25;;;3.10;91.80;;;;;;4880508;29;20087;-83
2020/12/29 01:41:43;;;;;;;3.65;1.60;;;3.10;91.90;;;;;;4856339;29;20053;-82
2020/12/29 01:44:17;;;;;;;3.65;1.67;;;3.20;91.50;;;;;;4865446;29;20270;-83
2020/12/29 01:46:45;;;;;;;4.32;1.45;;;3.10;91.50;;;;;;4870252;29;20445;-82
2020/12/29 01:49:12;;;;;;;3.42;1.67;;;3.10;91.80;;;;;;4844531;29;20261;-82
2020/12/29 01:51:40;;;;;;;3.03;2.15;;;3.00;91.80;;;;;;4877331;29;20380;-81
2020/12/29 01:54:07;;;;;;;4.30;2.08;;;3.00;91.60;;;;;;4868741;29;20050;-82
2020/12/29 01:56:37;;;;;;;3.30;1.52;;;3.00;91.90;;;;;;4871300;29;20073;-81
2020/12/29 01:59:09;;;;;;;3.23;1.50;;;3.00;91.90;;;;;;4870323;29;20229;-82
2020/12/29 02:01:40;;;;;;;1.90;0.82;;;3.00;91.70;;;;;;4865517;29;20331;-81
2020/12/29 02:04:08;;;;;;;2.97;1.27;;;2.90;91.80;;;;;;4837205;29;20033;-81
2020/12/29 02:06:35;;;;;;;1.92;1.08;;;2.90;91.80;;;;;;4873919;29;20214;-80
2020/12/29 02:09:05;;;;;;;2.15;1.08;;;2.90;91.90;;;;;;4854977;29;20102;-82
2020/12/29 02:11:32;;;;;;;2.58;1.10;;;2.90;91.50;;;;;;4839920;29;20054;-81
2020/12/29 02:13:59;;;;;;;3.35;1.35;;;2.80;92.00;;;;;;4866754;29;20069;-81
2020/12/29 02:16:26;;;;;;;3.28;1.08;;;2.90;92.00;;;;;;4873307;29;20054;-83
2020/12/29 02:18:53;;;;;;;2.75;0.95;;;2.90;92.20;;;;;;4850470;29;20053;-80
2020/12/29 02:21:20;;;;;;;1.35;0.70;;;3.00;92.00;;;;;;4870881;29;20085;-79
2020/12/29 02:23:47;;;;;;;0.90;0.60;;;2.90;91.80;;;;;;4870412;29;20109;-82
2020/12/29 02:26:14;;;;;;;2.42;0.98;;;2.90;92.10;;;;;;4880051;29;20068;-81
2020/12/29 02:28:41;;;;;;;2.10;0.73;;;3.00;91.40;;;;;;4877619;29;20109;-79
2020/12/29 02:31:08;;;;;;;1.90;0.80;;;2.90;91.20;;;;;;4854387;29;20057;-81
2020/12/29 02:33:36;;;;;;;2.15;0.73;;;2.80;92.40;;;;;;4884934;29;20075;-80
2020/12/29 02:36:03;;;;;;;2.00;0.85;;;2.70;92.80;;;;;;4868220;29;20053;-81
2020/12/29 02:38:30;;;;;;;2.30;0.90;;;2.70;92.40;;;;;;4855475;29;20277;-83
2020/12/29 02:40:57;;;;;;;3.00;1.10;;;2.70;92.70;;;;;;4867810;29;20236;-81
2020/12/29 02:43:24;;;;;;;2.25;0.85;;;2.80;92.60;;;;;;4871147;29;20118;-81
2020/12/29 02:45:51;;;;;;;2.17;1.13;;;2.90;92.50;;;;;;4870259;29;20060;-79
2020/12/29 02:48:18;;;;;;;2.55;1.20;;;2.80;91.80;;;;;;4859038;29;20379;-80
2020/12/29 02:50:45;;;;;;;3.03;1.00;;;2.80;92.10;;;;;;4862843;29;20053;-80
2020/12/29 02:53:12;;;;;;;1.38;0.68;;;2.80;92.60;;;;;;4853554;29;20080;-81
2020/12/29 02:55:39;;;;;;;1.63;0.80;;;2.70;92.10;;;;;;4870548;29;20317;-81
2020/12/29 02:58:07;;;;;;;1.98;0.77;;;2.70;92.40;;;;;;4853987;29;20363;-81
2020/12/29 03:00:34;;;;;;;2.15;1.00;;;2.70;92.60;;;;;;4853783;29;20067;-81
2020/12/29 03:03:04;;;;;;;2.65;1.20;;;2.70;92.90;;;;;;4870079;29;20249;-81
2020/12/29 03:05:30;;;;;;;1.77;0.50;;;2.70;93.00;;;;;;4852341;29;20076;-82
2020/12/29 03:07:57;;;;;;;2.05;1.00;;;2.80;92.50;;;;;;4852379;29;20054;-82
2020/12/29 03:10:24;;;;;;;2.67;1.00;;;2.90;92.50;;;;;;4847014;29;20086;-81
2020/12/29 03:12:52;;;;;;;1.83;0.98;;;2.90;92.30;;;;;;4860414;29;20402;-81
2020/12/29 03:15:20;;;;;;;2.35;0.95;;;2.80;92.50;;;;;;4844211;29;20390;-81
2020/12/29 03:17:47;;;;;;;3.30;1.23;;;2.80;92.70;;;;;;4872379;29;20065;-82
2020/12/29 03:20:14;;;;;;;2.35;1.05;;;2.80;93.00;;;;;;4847015;29;20057;-81
2020/12/29 03:22:41;;;;;;;2.67;1.40;;;2.90;93.10;;;;;;4853998;29;20352;-82
2020/12/29 03:25:08;;;;;;;2.60;1.27;;;2.80;92.50;;;;;;4853035;29;20057;-81
2020/12/29 03:27:35;;;;;;;3.38;1.17;;;2.90;92.30;;;;;;4845896;29;20069;-81
2020/12/29 03:30:03;;;;;;;2.70;1.00;;;2.70;92.60;;;;;;4855229;29;20222;-81
2020/12/29 03:32:31;;;;;;;3.05;1.45;;;2.70;93.30;;;;;;4871871;29;20418;-81
2020/12/29 03:34:58;;;;;;;2.00;1.08;;;2.70;93.30;;;;;;4866361;29;20042;-80
2020/12/29 03:37:25;;;;;;;1.83;0.82;;;2.80;93.30;;;;;;4874240;29;20045;-82
2020/12/29 03:39:52;;;;;;;3.33;1.38;;;2.90;93.20;;;;;;4857491;29;20049;-81
2020/12/29 03:42:19;;;;;;;4.53;1.77;;;2.90;92.80;;;;;;4853978;29;20057;-80
2020/12/29 03:44:45;;;;;;;3.63;1.63;;;2.90;93.00;;;;;;4865837;29;20049;-82
2020/12/29 03:47:12;;;;;;;2.72;1.15;;;3.00;93.00;;;;;;4857317;29;20060;-81
2020/12/29 03:49:45;;;;;;;1.75;0.80;;;3.00;92.60;;;;;;4858646;29;20200;-82
2020/12/29 03:52:12;;;;;;;1.25;0.60;;;2.90;92.40;;;;;;4840829;29;20057;-81
2020/12/29 03:54:39;;;;;;;1.45;0.70;;;3.00;92.40;;;;;;4860381;29;20049;-81
2020/12/29 03:57:07;;;;;;;1.50;0.82;;;3.00;92.60;;;;;;4876699;29;20049;-81
2020/12/29 03:59:33;;;;;;;1.20;0.80;;;3.10;92.20;;;;;;4851847;29;20206;-82
2020/12/29 04:02:05;;;;;;;1.65;0.80;;;3.00;92.10;;;;;;4861370;29;20053;-80
2020/12/29 04:04:33;;;;;;;2.65;1.00;;;2.80;92.90;;;;;;4862415;29;20048;-80
2020/12/29 04:07:01;;;;;;;1.95;0.75;;;3.00;92.70;;;;;;4853641;29;20053;-80
2020/12/29 04:09:31;;;;;;;2.88;1.00;;;3.00;92.10;;;;;;4863415;29;20253;-81
2020/12/29 04:11:58;;;;;;;1.58;0.90;;;2.90;92.20;;;;;;4881167;29;20069;-80
2020/12/29 04:14:25;;;;;;;3.22;1.05;;;2.90;92.20;;;;;;4898027;29;20053;-79
2020/12/29 04:16:55;;;;;;;5.07;2.38;;;2.80;92.20;;;;;;4897936;29;20060;-81
2020/12/29 04:19:23;;;;;;;8.32;3.17;;;2.70;92.80;;;;;;4911404;29;20073;-81
2020/12/29 04:21:50;;;;;;;6.07;2.85;;;2.70;92.80;;;;;;4909285;29;20116;-79
2020/12/29 04:24:18;;;;;;;4.70;2.17;;;2.70;93.10;;;;;;4899115;29;20329;-81
2020/12/29 04:26:45;;;;;;;5.75;2.50;;;2.60;93.50;;;;;;4886908;29;20273;-81
2020/12/29 04:29:13;;;;;;;2.78;1.27;;;2.60;93.40;;;;;;4897437;29;20051;-82
2020/12/29 04:31:41;;;;;;;2.28;1.27;;;2.60;93.60;;;;;;4882722;29;20175;-81
2020/12/29 04:34:07;;;;;;;1.30;0.90;;;2.70;93.30;;;;;;4895717;29;20060;-80
2020/12/29 04:36:38;;;;;;;2.30;1.13;;;2.70;93.30;;;;;;4893941;29;20068;-82
2020/12/29 04:39:05;;;;;;;2.15;1.10;;;2.70;93.20;;;;;;4898656;29;20344;-80
2020/12/29 04:41:33;;;;;;;4.28;1.20;;;2.70;93.30;;;;;;4884934;29;20137;-81
2020/12/29 04:44:00;;;;;;;2.42;1.25;;;2.70;93.20;;;;;;4891144;29;20075;-80
2020/12/29 04:46:31;;;;;;;2.50;0.77;;;2.70;93.20;;;;;;4874718;29;20128;-81
2020/12/29 04:48:59;;;;;;;2.80;1.10;;;2.70;93.20;;;;;;4871883;29;20111;-80
2020/12/29 04:51:28;;;;;;;2.78;1.05;;;2.90;92.70;;;;;;4890657;29;20057;-82
2020/12/29 04:53:57;;;;;;;3.10;1.35;;;2.80;92.80;;;;;;4887965;29;20064;-82
2020/12/29 04:56:33;;;;;;;2.88;1.05;;;2.80;93.10;;;;;;4881993;29;20088;-82
2020/12/29 04:59:00;;;;;;;2.03;1.20;;;2.90;93.00;;;;;;4890239;29;20061;-83
2020/12/29 05:01:34;;;;;;;1.67;0.90;;;2.90;92.60;;;;;;4891027;29;20055;-81
2020/12/29 05:04:01;;;;;;;2.92;0.80;;;3.00;92.70;;;;;;4874823;29;20283;-80
2020/12/29 05:06:28;;;;;;;2.35;1.38;;;3.00;92.40;;;;;;4891547;29;20068;-80
2020/12/29 05:08:56;;;;;;;2.20;1.05;;;3.10;92.30;;;;;;4891667;29;20057;-80
2020/12/29 05:11:25;;;;;;;3.35;1.40;;;3.00;92.40;;;;;;4877462;29;20056;-80
2020/12/29 05:13:53;;;;;;;1.77;1.17;;;3.00;92.60;;;;;;4876605;29;20057;-82
2020/12/29 05:16:19;;;;;;;2.58;1.15;;;2.90;92.90;;;;;;4899489;29;20084;-81
2020/12/29 05:18:46;;;;;;;2.03;0.70;;;2.90;93.20;;;;;;4874393;29;20261;-81
2020/12/29 05:21:13;;;;;;;3.47;1.05;;;3.00;93.10;;;;;;4860858;29;20056;-79
2020/12/29 05:23:40;;;;;;;2.47;1.05;;;3.10;92.60;;;;;;4892821;29;20404;-81
2020/12/29 05:26:07;;;;;;;3.03;1.27;;;3.00;92.70;;;;;;4875721;29;20048;-82
2020/12/29 05:28:34;;;;;;;2.20;1.33;;;3.00;93.20;;;;;;4875652;29;20057;-81
2020/12/29 05:31:03;;;;;;;3.03;1.20;;;3.00;93.40;;;;;;4891756;29;20565;-81
2020/12/29 05:33:30;;;;;;;1.77;1.20;;;3.00;93.30;;;;;;4875503;29;20059;-80
2020/12/29 05:35:59;;;;;;;3.85;1.55;;;3.00;93.40;;;;;;4875449;29;20053;-81
2020/12/29 05:38:26;;;;;;;1.48;0.88;;;3.10;93.60;;;;;;4892446;29;20136;-80
2020/12/29 05:40:53;;;;;;;2.38;0.98;;;3.10;93.00;;;;;;4892238;29;20084;-81
2020/12/29 05:43:30;;;;;;;1.77;0.98;;;3.20;93.40;;;;;;4859046;29;20248;-80
2020/12/29 05:46:06;;;;;;;2.90;1.13;;;3.20;93.10;;;;;;4874503;29;20296;-81
2020/12/29 05:48:33;;;;;;;4.20;1.65;;;3.30;92.80;;;;;;4870804;29;20049;-82
2020/12/29 05:51:01;;;;;;;4.75;2.40;;;3.20;92.70;;;;;;4865114;29;20125;-81
2020/12/29 05:53:32;;;;;;;1.17;0.77;;;3.30;93.20;;;;;;4874645;29;20056;-82
2020/12/29 05:55:59;;;;;;;3.38;1.42;;;3.30;92.90;;;;;;4886774;29;20089;-81
2020/12/29 05:58:27;;;;;;;3.00;1.30;;;3.30;93.30;;;;;;4871684;29;20372;-82
2020/12/29 06:00:55;;;;;;;3.38;1.25;;;3.20;93.70;;;;;;4890565;29;20075;-79
2020/12/29 06:03:24;;;;;;;1.55;0.93;;;3.30;93.90;;;;;;4889089;29;20053;-79
2020/12/29 06:05:52;;;;;;;2.88;1.27;;;3.30;93.40;;;;;;4855237;29;20325;-81
2020/12/29 06:08:21;;;;;;;3.00;0.98;;;3.40;93.40;;;;;;4872837;29;20677;-81
2020/12/29 06:11:04;;;;;;;2.38;0.85;;;3.40;93.30;;;;;;4890270;29;20138;-81
2020/12/29 06:13:37;;;;;;;2.75;1.20;;;3.30;93.40;;;;;;4890203;29;20068;-82
2020/12/29 06:16:04;;;;;;;4.45;1.48;;;3.30;93.20;;;;;;4894568;29;20422;-82
2020/12/29 06:18:37;;;;;;;1.60;0.95;;;3.20;93.80;;;;;;4894887;29;20116;-82
2020/12/29 06:21:06;;;;;;;2.17;1.02;;;3.20;94.00;;;;;;4883807;29;20344;-84
2020/12/29 06:23:44;;;;;;;5.10;1.60;;;3.30;93.30;;;;;;4895551;29;20037;-80
2020/12/29 06:26:11;;;;;;;3.85;1.20;;;3.30;93.70;;;;;;4859344;29;20316;-82
2020/12/29 06:28:46;;;;;;;2.53;1.30;;;3.40;93.80;;;;;;4889667;29;20061;-80
2020/12/29 06:31:22;;;;;;;2.92;0.73;;;3.40;93.40;;;;;;4892809;29;20056;-81
2020/12/29 06:33:55;;;;;;;1.90;0.70;;;3.50;92.90;;;;;;4888850;29;20075;-80
2020/12/29 06:36:23;;;;;;;0.85;0.35;;;3.60;92.40;;;;;;4876429;29;20053;-82
2020/12/29 06:38:54;;;;;;;0.75;0.20;;;3.60;92.40;;;;;;4889737;29;20382;-79
2020/12/29 06:41:21;;;;;;;1.33;0.43;;;3.70;92.50;;;;;;4890173;29;20064;-80
2020/12/29 06:43:48;;;;;;;1.65;0.50;;;3.70;91.70;;;;;;4885070;29;20063;-81
2020/12/29 06:46:16;;;;;;;1.00;0.50;;;3.80;91.40;;;;;;4889930;29;20228;-81
2020/12/29 06:48:43;;;;;;;0.63;0.20;;;3.70;91.90;;;;;;4891257;29;20086;-80
2020/12/29 06:51:13;;;;;;;2.45;0.60;;;3.70;92.00;;;;;;4874628;29;20129;-82
2020/12/29 06:53:41;;;;;;;1.45;0.88;;;3.70;91.50;;;;;;4889186;29;20129;-82
2020/12/29 06:56:14;;;;;;;3.15;0.30;;;3.70;91.70;;;;;;4875327;29;20057;-80
2020/12/29 06:58:41;;;;;;;1.00;0.40;;;3.70;91.60;;;;;;4890886;29;20065;-81
2020/12/29 07:01:20;;;;;;;2.65;0.30;;;3.70;91.10;;;;;;4890901;29;20064;-82
2020/12/29 07:03:48;;;;;;;0.10;0.10;;;3.70;91.60;;;;;;4890427;29;20049;-82
2020/12/29 07:06:16;;;;;;;0.57;0.20;;;3.60;91.20;;;;;;4893973;29;20061;-83
2020/12/29 07:08:44;;;;;;;1.65;0.28;;;3.60;91.50;;;;;;4895430;29;20124;-83
2020/12/29 07:11:18;;;;;;;0.45;0.30;;;3.50;91.30;;;;;;4893431;29;20064;-84
2020/12/29 07:13:51;;;;;;;2.08;0.47;;;3.50;91.50;;;;;;4869798;29;20308;-82
2020/12/29 07:16:23;;;;;;;0.43;0.10;;;3.50;91.90;;;;;;4863839;29;20060;-81
2020/12/29 07:18:50;;;;;;;0.35;0.20;;;3.40;91.70;;;;;;4872660;29;20087;-80
2020/12/29 07:21:28;;;;;;;0.15;0.10;;;3.40;91.90;;;;;;4891704;29;20071;-82
2020/12/29 07:23:56;;;;;;;0.25;0.20;;;3.30;92.20;;;;;;4885504;29;20056;-81
2020/12/29 07:26:24;;;;;;;0.20;0.20;;;3.30;92.50;;;;;;4872833;29;20237;-81
2020/12/29 07:28:54;;;;;;;1.08;0.80;;;3.20;92.40;;;;;;4891184;29;20057;-81
2020/12/29 07:31:21;;;;;;;1.00;0.40;;;3.20;92.50;;;;;;4879059;29;20289;-83
2020/12/29 07:33:53;;;;;;;0.28;0.28;;;3.30;92.30;;;;;;4885249;29;20060;-82
2020/12/29 07:36:21;;;;;;;1.33;0.52;;;3.30;92.20;;;;;;4896613;29;20064;-82
2020/12/29 07:38:50;;;;;;;0.93;0.40;;;3.30;92.20;;;;;;4880573;29;20052;-81
2020/12/29 07:41:18;;;;;;;0.28;0.20;;;3.30;92.30;;;;;;4874611;29;20057;-81
2020/12/29 07:43:45;;;;;;;1.17;0.38;;;3.20;92.40;;;;;;4879429;29;20048;-82
2020/12/29 07:46:14;;;;;;;1.42;0.52;;;3.20;93.30;;;;;;4850948;29;20049;-83
2020/12/29 07:48:41;;;;;;;0.50;0.32;;;3.10;93.40;;;;;;4896011;29;20060;-81
2020/12/29 07:51:08;;;;;;;1.35;0.50;;;3.20;93.10;;;;;;4865179;29;20052;-83
2020/12/29 07:53:35;;;;;;;0.55;0.30;;;3.10;93.30;;;;;;4891686;29;20057;-84
2020/12/29 07:56:05;;;;;;;0.90;0.35;;;3.00;93.60;;;;;;4873436;29;20038;-82
2020/12/29 07:58:32;;;;;;;0.30;0.20;;;2.90;94.00;;;;;;4892533;29;20112;-80
2020/12/29 08:01:03;;;;;;;0.82;0.30;;;2.90;94.20;;;;;;4880543;29;20408;-83
2020/12/29 08:03:30;;;;;;;1.17;0.38;;;2.90;94.30;;;;;;4861669;29;20068;-82
2020/12/29 08:05:57;;;;;;;0.10;0.10;;;2.90;94.90;;;;;;4895150;29;20060;-84
2020/12/29 08:08:24;;;;;;;1.33;0.65;;;2.80;94.70;;;;;;4880012;29;20088;-81
2020/12/29 08:10:51;;;;;;;0.45;0.30;;;2.80;94.70;;;;;;4868816;29;20097;-81
2020/12/29 08:13:20;;;;;;;1.55;0.40;;;2.70;95.10;;;;;;4905771;29;20071;-81
2020/12/29 08:15:49;;;;;;;1.60;0.52;;;2.70;94.40;;;;;;4894096;29;20060;-82
2020/12/29 08:18:17;;;;;;;0.50;0.40;;;2.80;94.60;;;;;;4893861;29;20053;-82
2020/12/29 08:20:50;;;;;;;1.03;0.60;;;2.80;94.80;;;;;;4894320;29;20052;-81
2020/12/29 08:23:19;;;;;;;0.65;0.30;;;2.80;94.60;;;;;;4887132;29;20049;-82
2020/12/29 08:25:51;;;;;;;0.98;0.32;;;2.90;94.60;;;;;;4889001;29;20065;-81
2020/12/29 08:28:19;;;;;;;0.70;0.40;;;2.90;94.40;;;;;;4897661;29;20053;-82
2020/12/29 08:30:47;;;;;;;1.05;0.40;;;2.90;94.60;;;;;;4902909;29;20049;-83
2020/12/29 08:33:16;;;;;;;2.00;0.60;;;2.80;94.60;;;;;;4897273;29;20378;-81
2020/12/29 08:35:49;;;;;;;1.77;0.40;;;2.70;94.50;;;;;;4883620;29;20055;-80
2020/12/29 08:38:36;;;;;;;1.15;0.32;;;2.70;94.80;;;;;;4894725;29;20076;-80
2020/12/29 08:41:11;;;;;;;2.30;0.52;;;2.50;94.90;;;;;;4879046;29;20045;-81
2020/12/29 08:43:45;;;;;;;2.78;0.60;;;2.50;95.10;;;;;;4870260;29;20125;-81
2020/12/29 08:46:13;;;;;;;3.20;0.88;;;2.50;95.20;;;;;;4878555;29;20049;-81
2020/12/29 08:48:53;;;;;;;1.17;0.43;;;2.60;95.50;;;;;;4895743;29;20057;-80
2020/12/29 08:51:25;;;;;;;1.52;0.80;;;2.70;95.40;;;;;;4879496;29;20057;-80
2020/12/29 08:53:53;;;;;;;1.40;0.50;;;2.70;95.30;;;;;;4895182;29;20083;-80
2020/12/29 08:56:25;;;;;;;2.63;1.17;;;2.80;95.30;;;;;;4894436;29;20056;-79
2020/12/29 08:58:53;;;;;;;2.28;0.77;;;2.90;95.00;;;;;;4895877;29;20060;-82
2020/12/29 09:01:33;;;;;;;5.15;1.00;;;3.00;95.00;;;;;;4880479;29;20567;-81
2020/12/29 09:04:21;;;;;;;1.15;0.43;;;3.00;94.60;;;;;;4881736;29;20057;-81
2020/12/29 09:07:06;;;;;;;1.05;0.40;;;3.00;94.40;;;;;;4895597;29;20040;-81
2020/12/29 09:09:36;;;;;;;2.67;1.00;;;3.00;94.70;;;;;;4893908;29;20049;-81
2020/12/29 09:12:09;;;;;;;2.88;1.08;;;3.00;94.30;;;;;;4894949;29;20057;-80
2020/12/29 09:14:52;;;;;;;2.35;1.08;;;3.10;94.70;;;;;;4878147;29;20058;-82
2020/12/29 09:17:19;;;;;;;1.15;0.60;;;3.10;94.30;;;;;;4898127;29;20053;-80
2020/12/29 09:20:12;;;;;;;1.52;0.70;;;3.10;94.30;;;;;;4897730;29;20073;-80
2020/12/29 09:22:52;;;;;;;0.90;0.60;;;3.20;94.20;;;;;;4894484;29;20384;-79
2020/12/29 09:25:25;;;;;;;2.15;0.70;;;3.20;94.20;;;;;;4865279;29;20045;-80
2020/12/29 09:28:18;;;;;;;2.50;0.88;;;3.20;94.30;;;;;;4888922;29;20061;-80
2020/12/29 09:30:56;;;;;;;2.05;0.60;;;3.30;94.10;;;;;;4891439;29;20372;-81
2020/12/29 09:33:23;;;;;;;1.35;0.80;;;3.30;93.80;;;;;;4893458;29;20075;-82
2020/12/29 09:35:50;;;;;;;3.30;0.95;;;3.30;93.90;;;;;;4874080;29;20132;-80
2020/12/29 09:38:18;;;;;;;1.63;0.60;;;3.30;93.70;;;;;;4893211;29;20106;-82
2020/12/29 09:40:45;;;;;;;2.50;0.90;;;3.40;93.30;;;;;;4893012;29;20061;-80
2020/12/29 09:43:13;;;;;;;2.08;0.93;;;3.50;92.90;;;;;;4892015;29;20057;-84
2020/12/29 09:45:43;;;;;;;1.13;0.68;;;3.40;92.90;;;;;;4892019;29;20254;-82
2020/12/29 09:48:10;;;;;;;1.95;0.60;;;3.40;92.70;;;;;;4893224;29;20583;-82
2020/12/29 09:50:40;;;;;;;1.42;0.70;;;3.50;93.20;;;;;;4891667;29;20056;-82
2020/12/29 09:53:07;;;;;;;1.40;0.68;;;3.50;92.50;;;;;;4891974;29;20057;-84
2020/12/29 09:55:33;;;;;;;3.50;1.13;;;3.50;92.90;;;;;;4876029;29;20049;-84
2020/12/29 09:58:00;;;;;;;0.68;0.43;;;3.50;92.80;;;;;;4892717;29;20084;-83
2020/12/29 10:00:30;;;;;;;1.25;0.73;;;3.50;92.70;;;;;;4892593;29;20059;-82
2020/12/29 10:03:00;;;;;;;2.00;0.53;;;3.50;92.60;;;;;;4886404;29;20115;-82
2020/12/29 10:05:30;;;;;;;1.13;0.50;;;3.50;92.40;;;;;;4890815;29;20040;-82
2020/12/29 10:07:56;;;;;;;1.63;0.73;;;3.60;92.40;;;;;;4894497;29;20060;-84
2020/12/29 10:10:24;;;;;;;0.63;0.30;;;3.50;92.80;;;;;;4869637;29;20234;-83
2020/12/29 10:12:56;;;;;;;1.23;0.43;;;3.60;92.30;;;;;;4891001;29;20346;-82
2020/12/29 10:15:23;;;;;;;1.75;0.60;;;3.50;92.40;;;;;;4893512;29;20352;-82
2020/12/29 10:17:49;;;;;;;1.77;1.05;;;3.50;92.70;;;;;;4896056;29;20052;-83
2020/12/29 10:20:17;;;;;;;0.80;0.50;;;3.60;92.30;;;;;;4891500;29;20041;-81
2020/12/29 10:22:46;;;;;;;1.30;0.70;;;3.60;92.50;;;;;;4885624;29;20051;-83
2020/12/29 10:25:15;;;;;;;3.10;0.70;;;3.60;92.30;;;;;;4892022;29;20532;-82
2020/12/29 10:27:43;;;;;;;3.13;0.98;;;3.70;92.30;;;;;;4890388;29;20049;-82
2020/12/29 10:30:10;;;;;;;1.45;0.60;;;3.70;92.00;;;;;;4891630;29;20052;-83
2020/12/29 10:32:37;;;;;;;0.88;0.40;;;3.70;92.00;;;;;;4894521;29;20089;-83
2020/12/29 10:35:06;;;;;;;1.05;0.60;;;3.70;92.60;;;;;;4889791;29;20051;-82
2020/12/29 10:37:32;;;;;;;2.63;0.68;;;3.70;91.70;;;;;;4893891;29;20229;-83
2020/12/29 10:40:00;;;;;;;1.75;0.70;;;3.80;91.80;;;;;;4894405;29;20166;-83
2020/12/29 10:42:30;;;;;;;1.60;0.75;;;3.80;91.70;;;;;;4894708;29;20534;-83
2020/12/29 10:44:57;;;;;;;1.25;0.70;;;3.70;92.00;;;;;;4875984;29;20121;-82
2020/12/29 10:47:24;;;;;;;1.40;0.50;;;3.80;92.00;;;;;;4891307;29;20045;-83
2020/12/29 10:49:50;;;;;;;1.92;0.77;;;3.80;91.60;;;;;;4900702;29;20049;-82
2020/12/29 10:52:17;;;;;;;1.92;0.80;;;3.80;92.00;;;;;;4896335;29;20053;-85
2020/12/29 10:54:44;;;;;;;2.70;0.95;;;3.90;91.70;;;;;;4891699;29;20049;-82
2020/12/29 10:57:12;;;;;;;1.30;0.80;;;3.90;92.00;;;;;;4881607;29;20064;-81
2020/12/29 10:59:40;;;;;;;1.52;0.70;;;3.90;91.40;;;;;;4895459;29;20059;-81
2020/12/29 11:02:09;;;;;;;3.08;1.17;;;3.90;91.50;;;;;;4892961;29;20048;-83
2020/12/29 11:04:36;;;;;;;2.03;0.70;;;3.90;91.30;;;;;;4892064;29;20087;-82
2020/12/29 11:07:04;;;;;;;1.88;0.80;;;3.90;91.40;;;;;;4866131;29;20068;-82
2020/12/29 11:09:31;;;;;;;2.53;0.98;;;3.90;91.40;;;;;;4904423;29;20053;-82
2020/12/29 11:11:58;;;;;;;1.58;0.80;;;4.00;91.60;;;;;;4866598;29;20053;-84
2020/12/29 11:14:26;;;;;;;1.88;0.80;;;4.00;91.30;;;;;;4876315;29;20060;-83
2020/12/29 11:16:53;;;;;;;2.50;1.20;;;3.90;90.70;;;;;;4845433;29;20049;-83
2020/12/29 11:19:20;;;;;;;1.73;1.00;;;4.00;90.80;;;;;;4857499;29;20114;-83
2020/12/29 11:21:47;;;;;;;1.63;0.90;;;4.00;91.20;;;;;;4845008;29;20082;-82
2020/12/29 11:24:16;;;;;;;4.32;1.13;;;4.00;91.00;;;;;;4845255;29;20045;-83
2020/12/29 11:26:45;;;;;;;4.25;1.35;;;4.10;91.00;;;;;;4878230;29;20049;-83
2020/12/29 11:29:11;;;;;;;3.10;1.30;;;4.10;90.60;;;;;;4859799;29;20321;-82
2020/12/29 11:31:40;;;;;;;1.90;0.93;;;4.20;90.80;;;;;;4866949;29;20046;-84
2020/12/29 11:34:07;;;;;;;2.78;1.30;;;4.20;90.50;;;;;;4872129;29;20341;-83
2020/12/29 11:36:34;;;;;;;4.65;1.20;;;4.20;90.60;;;;;;4873353;29;20105;-84
2020/12/29 11:39:00;;;;;;;3.05;1.10;;;4.20;90.20;;;;;;4867686;29;20065;-83
2020/12/29 11:41:27;;;;;;;3.63;1.35;;;4.30;90.00;;;;;;4874353;29;20240;-86
2020/12/29 11:43:54;;;;;;;3.00;1.38;;;4.40;89.30;;;;;;4875435;29;20050;-83
2020/12/29 11:46:21;;;;;;;5.35;2.00;;;4.50;89.30;;;;;;4852641;29;20230;-85
2020/12/29 11:48:49;;;;;;;2.00;1.02;;;4.40;90.00;;;;;;4854922;29;20229;-84
2020/12/29 11:51:17;;;;;;;2.50;1.25;;;4.50;89.90;;;;;;4857149;29;20108;-82
2020/12/29 11:53:44;;;;;;;1.65;0.68;;;4.60;89.50;;;;;;4874174;29;20091;-82
2020/12/29 11:56:11;;;;;;;2.63;1.35;;;4.60;89.40;;;;;;4866116;29;20053;-83
2020/12/29 11:58:38;;;;;;;4.03;1.20;;;4.60;89.10;;;;;;4873329;29;20081;-82
2020/12/29 12:01:05;;;;;;;1.30;0.70;;;4.50;89.10;;;;;;4856758;29;20050;-83
2020/12/29 12:03:33;;;;;;;3.10;1.20;;;4.60;88.70;;;;;;4872799;29;20061;-84
2020/12/29 12:06:00;;;;;;;2.90;1.27;;;4.60;88.40;;;;;;4841104;29;20286;-85
2020/12/29 12:08:27;;;;;;;2.22;1.20;;;4.70;88.60;;;;;;4849623;29;20127;-82
2020/12/29 12:10:54;;;;;;;3.70;1.08;;;4.70;88.70;;;;;;4875059;29;20217;-83
2020/12/29 12:13:21;;;;;;;1.67;0.85;;;4.70;88.70;;;;;;4882899;29;20079;-84
2020/12/29 12:15:48;;;;;;;2.75;1.33;;;4.70;88.20;;;;;;4862730;29;20051;-83
2020/12/29 12:18:23;;;;;;;1.91;0.76;;;4.80;87.70;;;;;;4723196;29;10001345;-83
2020/12/29 12:20:50;;;;;;;4.38;1.08;;;4.80;87.70;;;;;;669977;29;10002036;-83
2020/12/29 12:23:17;;;;;;;2.63;0.80;;;4.90;87.40;;;;;;4872462;29;20064;-83
2020/12/29 12:25:45;;;;;;;4.05;1.38;;;5.00;87.90;;;;;;4870969;29;20286;-81
2020/12/29 12:28:12;;;;;;;2.25;1.00;;;5.00;86.70;;;;;;4842340;29;20098;-83
2020/12/29 12:30:40;;;;;;;2.10;0.88;;;5.20;86.80;;;;;;4867240;29;20058;-84
2020/12/29 12:33:07;;;;;;;3.03;0.90;;;5.60;85.90;;;;;;4871845;29;20072;-83
2020/12/29 12:35:34;;;;;;;2.08;1.00;;;5.60;85.50;;;;;;4862448;29;20105;-84
2020/12/29 12:38:02;;;;;;;1.13;0.80;;;5.60;84.90;;;;;;4870804;29;20053;-81
2020/12/29 12:40:30;;;;;;;1.90;1.02;;;5.40;85.20;;;;;;4872622;29;20109;-83
2020/12/29 12:42:57;;;;;;;2.15;0.90;;;5.10;86.10;;;;;;4848132;29;20072;-83
2020/12/29 12:45:23;;;;;;;4.15;1.10;;;5.20;86.80;;;;;;4851354;29;20050;-82
2020/12/29 12:47:50;;;;;;;1.75;0.95;;;5.10;85.40;;;;;;4868023;29;20069;-82
2020/12/29 12:50:17;;;;;;;3.00;1.00;;;5.20;86.20;;;;;;4856012;29;20049;-85
2020/12/29 12:52:44;;;;;;;0.90;0.57;;;5.20;85.80;;;;;;4856166;29;20090;-82
2020/12/29 12:55:10;;;;;;;2.95;1.27;;;5.20;85.80;;;;;;4868879;29;20057;-82
2020/12/29 12:57:38;;;;;;;3.05;1.35;;;5.20;86.30;;;;;;4869091;29;20061;-84
2020/12/29 13:00:05;;;;;;;3.20;1.30;;;5.20;85.50;;;;;;4873331;29;20114;-84
2020/12/29 13:02:36;;;;;;;3.67;2.10;;;5.20;85.00;;;;;;4854944;29;20045;-84
2020/12/29 13:05:03;;;;;;;2.28;0.80;;;5.10;85.20;;;;;;4871340;29;20117;-84